sensor_id;sensor_type;location;lat;lon;timestamp;pressure;altitude;pressure_sealevel;temperature;humidity
18167;BME280;9208;42.688;23.404;2023-02-17T00:01:27;96438.00;;;1.95;100.00
18167;BME280;9208;42.688;23.404;2023-02-17T00:03:53;96436.13;;;1.88;100.00
18167;BME280;9208;42.688;23.404;2023-02-17T00:06:24;96434.22;;;1.82;100.00
18167;BME280;9208;42.688;23.404;2023-02-17T00:08:50;96433.50;;;1.74;100.00
18167;BME280;9208;42.688;23.404;2023-02-17T00:11:16;96427.75;;;1.72;100.00
18167;BME280;9208;42.688;23.404;2023-02-17T00:13:44;96429.31;;;1.70;100.00
18167;BME280;9208;42.688;23.404;2023-02-17T00:16:21;96426.16;;;1.78;100.00
18167;BME280;9208;42.688;23.404;2023-02-17T00:19:12;96424.34;;;1.65;100.00
18167;BME280;9208;42.688;23.404;2023-02-17T00:21:50;96419.28;;;1.67;100.00
18167;BME280;9208;42.688;23.404;2023-02-17T00:24:16;96425.47;;;1.67;100.00
18167;BME280;9208;42.688;23.404;2023-02-17T00:26:41;96415.03;;;1.69;100.00
18167;BME280;9208;42.688;23.404;2023-02-17T00:29:07;96415.41;;;1.71;100.00
18167;BME280;9208;42.688;23.404;2023-02-17T00:31:32;96409.56;;;1.76;100.00
18167;BME280;9208;42.688;23.404;2023-02-17T00:33:58;96413.06;;;1.73;100.00
18167;BME280;9208;42.688;23.404;2023-02-17T00:36:24;96413.72;;;1.88;100.00
18167;BME280;9208;42.688;23.404;2023-02-17T00:38:51;96412.09;;;2.01;100.00
18167;BME280;9208;42.688;23.404;2023-02-17T00:41:18;96417.38;;;2.11;100.00
18167;BME280;9208;42.688;23.404;2023-02-17T00:43:44;96424.47;;;1.95;100.00
18167;BME280;9208;42.688;23.404;2023-02-17T00:46:10;96427.03;;;1.61;100.00
18167;BME280;9208;42.688;23.404;2023-02-17T00:48:35;96417.19;;;1.30;100.00
18167;BME280;9208;42.688;23.404;2023-02-17T00:51:04;96414.81;;;1.43;100.00
18167;BME280;9208;42.688;23.404;2023-02-17T00:53:30;96419.47;;;1.39;100.00
18167;BME280;9208;42.688;23.404;2023-02-17T00:55:55;96415.56;;;1.43;100.00
18167;BME280;9208;42.688;23.404;2023-02-17T00:58:24;96427.13;;;1.51;100.00
18167;BME280;9208;42.688;23.404;2023-02-17T01:00:49;96408.94;;;1.55;100.00
18167;BME280;9208;42.688;23.404;2023-02-17T01:03:15;96407.03;;;1.52;100.00
18167;BME280;9208;42.688;23.404;2023-02-17T01:05:45;96397.88;;;1.32;100.00
18167;BME280;9208;42.688;23.404;2023-02-17T01:08:11;96396.44;;;1.10;100.00
18167;BME280;9208;42.688;23.404;2023-02-17T01:10:41;96393.06;;;0.99;100.00
18167;BME280;9208;42.688;23.404;2023-02-17T01:13:10;96384.16;;;0.98;100.00
18167;BME280;9208;42.688;23.404;2023-02-17T01:15:41;96389.19;;;1.00;100.00
18167;BME280;9208;42.688;23.404;2023-02-17T01:18:07;96393.84;;;0.92;100.00
18167;BME280;9208;42.688;23.404;2023-02-17T01:20:36;96402.31;;;0.98;100.00
18167;BME280;9208;42.688;23.404;2023-02-17T01:23:02;96404.22;;;0.97;100.00
18167;BME280;9208;42.688;23.404;2023-02-17T01:25:28;96406.28;;;0.65;100.00
18167;BME280;9208;42.688;23.404;2023-02-17T01:27:54;96391.34;;;0.40;100.00
18167;BME280;9208;42.688;23.404;2023-02-17T01:30:19;96396.72;;;0.50;100.00
18167;BME280;9208;42.688;23.404;2023-02-17T01:32:45;96393.22;;;0.57;100.00
18167;BME280;9208;42.688;23.404;2023-02-17T01:35:10;96387.84;;;0.39;100.00
18167;BME280;9208;42.688;23.404;2023-02-17T01:37:36;96394.00;;;0.47;100.00
18167;BME280;9208;42.688;23.404;2023-02-17T01:40:02;96394.38;;;0.52;100.00
18167;BME280;9208;42.688;23.404;2023-02-17T01:42:28;96391.28;;;0.47;100.00
18167;BME280;9208;42.688;23.404;2023-02-17T01:45:37;96394.38;;;0.49;100.00
18167;BME280;9208;42.688;23.404;2023-02-17T01:48:17;96387.47;;;0.48;100.00
18167;BME280;9208;42.688;23.404;2023-02-17T01:53:43;96395.13;;;0.63;100.00
18167;BME280;9208;42.688;23.404;2023-02-17T01:56:11;96398.19;;;0.65;100.00
18167;BME280;9208;42.688;23.404;2023-02-17T01:58:42;96394.38;;;0.59;100.00
18167;BME280;9208;42.688;23.404;2023-02-17T02:01:08;96392.03;;;0.61;100.00
18167;BME280;9208;42.688;23.404;2023-02-17T02:03:35;96384.31;;;0.60;100.00
18167;BME280;9208;42.688;23.404;2023-02-17T02:06:06;96385.91;;;0.50;100.00
18167;BME280;9208;42.688;23.404;2023-02-17T02:08:38;96376.69;;;0.37;100.00
18167;BME280;9208;42.688;23.404;2023-02-17T02:11:05;96374.75;;;0.45;100.00
18167;BME280;9208;42.688;23.404;2023-02-17T02:13:31;96379.75;;;0.46;100.00
18167;BME280;9208;42.688;23.404;2023-02-17T02:18:48;96385.50;;;0.52;100.00
18167;BME280;9208;42.688;23.404;2023-02-17T02:21:29;96378.22;;;0.42;100.00
18167;BME280;9208;42.688;23.404;2023-02-17T02:26:52;96379.34;;;0.44;100.00
18167;BME280;9208;42.688;23.404;2023-02-17T02:35:12;96380.91;;;0.49;100.00
18167;BME280;9208;42.688;23.404;2023-02-17T02:37:40;96370.50;;;0.44;100.00
18167;BME280;9208;42.688;23.404;2023-02-17T02:40:07;96374.31;;;0.53;100.00
18167;BME280;9208;42.688;23.404;2023-02-17T02:42:35;96380.13;;;0.55;100.00
18167;BME280;9208;42.688;23.404;2023-02-17T02:45:04;96373.53;;;0.60;100.00
18167;BME280;9208;42.688;23.404;2023-02-17T02:47:42;96383.56;;;0.63;100.00
18167;BME280;9208;42.688;23.404;2023-02-17T02:50:13;96382.38;;;0.64;100.00
18167;BME280;9208;42.688;23.404;2023-02-17T03:00:24;96392.38;;;0.70;100.00
18167;BME280;9208;42.688;23.404;2023-02-17T03:06:00;96391.28;;;0.47;100.00
18167;BME280;9208;42.688;23.404;2023-02-17T03:10:55;96391.31;;;0.50;100.00
18167;BME280;9208;42.688;23.404;2023-02-17T03:13:21;96390.47;;;0.67;100.00
18167;BME280;9208;42.688;23.404;2023-02-17T03:15:47;96388.53;;;0.71;100.00
18167;BME280;9208;42.688;23.404;2023-02-17T03:18:13;96389.66;;;0.74;100.00
18167;BME280;9208;42.688;23.404;2023-02-17T03:20:44;96394.31;;;0.73;100.00
18167;BME280;9208;42.688;23.404;2023-02-17T03:23:12;96387.38;;;0.69;100.00
18167;BME280;9208;42.688;23.404;2023-02-17T03:25:37;96383.13;;;0.78;100.00
18167;BME280;9208;42.688;23.404;2023-02-17T03:28:03;96389.66;;;0.81;100.00
18167;BME280;9208;42.688;23.404;2023-02-17T03:30:28;96397.72;;;0.84;100.00
18167;BME280;9208;42.688;23.404;2023-02-17T03:32:57;96391.97;;;0.75;100.00
18167;BME280;9208;42.688;23.404;2023-02-17T03:35:22;96393.16;;;0.74;100.00
18167;BME280;9208;42.688;23.404;2023-02-17T03:37:47;96392.38;;;0.74;100.00
18167;BME280;9208;42.688;23.404;2023-02-17T03:40:13;96392.00;;;0.72;100.00
18167;BME280;9208;42.688;23.404;2023-02-17T03:42:38;96386.63;;;0.65;100.00
18167;BME280;9208;42.688;23.404;2023-02-17T03:45:04;96378.94;;;0.63;100.00
18167;BME280;9208;42.688;23.404;2023-02-17T03:47:30;96381.28;;;0.54;100.00
18167;BME280;9208;42.688;23.404;2023-02-17T03:49:55;96378.97;;;0.49;100.00
18167;BME280;9208;42.688;23.404;2023-02-17T03:52:21;96380.47;;;0.57;100.00
18167;BME280;9208;42.688;23.404;2023-02-17T03:54:46;96373.88;;;0.76;100.00
18167;BME280;9208;42.688;23.404;2023-02-17T03:57:11;96381.56;;;0.81;100.00
18167;BME280;9208;42.688;23.404;2023-02-17T03:59:37;96382.34;;;0.81;100.00
18167;BME280;9208;42.688;23.404;2023-02-17T04:02:02;96384.22;;;0.91;100.00
18167;BME280;9208;42.688;23.404;2023-02-17T04:04:28;96394.56;;;1.07;100.00
18167;BME280;9208;42.688;23.404;2023-02-17T04:06:53;96384.88;;;1.13;100.00
18167;BME280;9208;42.688;23.404;2023-02-17T04:09:19;96391.41;;;1.19;100.00
18167;BME280;9208;42.688;23.404;2023-02-17T04:11:45;96373.28;;;1.16;100.00
18167;BME280;9208;42.688;23.404;2023-02-17T04:14:10;96372.94;;;1.10;100.00
18167;BME280;9208;42.688;23.404;2023-02-17T04:16:36;96370.25;;;1.07;100.00
18167;BME280;9208;42.688;23.404;2023-02-17T04:19:04;96376.84;;;0.99;100.00
18167;BME280;9208;42.688;23.404;2023-02-17T04:21:30;96377.63;;;0.96;100.00
18167;BME280;9208;42.688;23.404;2023-02-17T04:23:56;96388.44;;;0.96;100.00
18167;BME280;9208;42.688;23.404;2023-02-17T04:26:21;96382.63;;;1.04;100.00
18167;BME280;9208;42.688;23.404;2023-02-17T04:28:47;96370.66;;;0.98;100.00
18167;BME280;9208;42.688;23.404;2023-02-17T04:31:12;96359.13;;;0.94;100.00
18167;BME280;9208;42.688;23.404;2023-02-17T04:33:38;96374.56;;;0.94;100.00
18167;BME280;9208;42.688;23.404;2023-02-17T04:36:03;96379.91;;;1.01;100.00
18167;BME280;9208;42.688;23.404;2023-02-17T04:38:30;96394.94;;;1.09;100.00
18167;BME280;9208;42.688;23.404;2023-02-17T04:40:57;96389.91;;;1.11;100.00
18167;BME280;9208;42.688;23.404;2023-02-17T04:43:24;96396.09;;;1.08;100.00
18167;BME280;9208;42.688;23.404;2023-02-17T04:45:50;96403.03;;;1.05;100.00
18167;BME280;9208;42.688;23.404;2023-02-17T04:48:16;96391.13;;;0.96;100.00
18167;BME280;9208;42.688;23.404;2023-02-17T04:50:41;96384.63;;;0.86;100.00
18167;BME280;9208;42.688;23.404;2023-02-17T04:53:07;96387.31;;;0.83;100.00
18167;BME280;9208;42.688;23.404;2023-02-17T04:55:33;96393.13;;;0.81;100.00
18167;BME280;9208;42.688;23.404;2023-02-17T04:57:58;96383.53;;;0.66;100.00
18167;BME280;9208;42.688;23.404;2023-02-17T05:00:24;96382.78;;;0.59;100.00
18167;BME280;9208;42.688;23.404;2023-02-17T05:02:49;96383.19;;;0.57;100.00
18167;BME280;9208;42.688;23.404;2023-02-17T05:05:15;96390.91;;;0.52;100.00
18167;BME280;9208;42.688;23.404;2023-02-17T05:07:43;96401.69;;;0.48;100.00
18167;BME280;9208;42.688;23.404;2023-02-17T05:10:09;96401.25;;;0.67;100.00
18167;BME280;9208;42.688;23.404;2023-02-17T05:12:35;96401.66;;;0.66;100.00
18167;BME280;9208;42.688;23.404;2023-02-17T05:15:00;96412.06;;;0.71;100.00
18167;BME280;9208;42.688;23.404;2023-02-17T05:17:26;96399.72;;;0.66;100.00
18167;BME280;9208;42.688;23.404;2023-02-17T05:19:51;96402.78;;;0.75;100.00
18167;BME280;9208;42.688;23.404;2023-02-17T05:22:16;96410.09;;;0.78;100.00
18167;BME280;9208;42.688;23.404;2023-02-17T05:24:42;96422.03;;;0.84;100.00
18167;BME280;9208;42.688;23.404;2023-02-17T05:27:10;96415.06;;;0.90;100.00
18167;BME280;9208;42.688;23.404;2023-02-17T05:29:36;96417.78;;;0.90;100.00
18167;BME280;9208;42.688;23.404;2023-02-17T05:32:02;96410.91;;;0.72;100.00
18167;BME280;9208;42.688;23.404;2023-02-17T05:34:27;96422.84;;;0.71;100.00
18167;BME280;9208;42.688;23.404;2023-02-17T05:36:52;96420.56;;;0.66;100.00
18167;BME280;9208;42.688;23.404;2023-02-17T05:39:18;96438.25;;;0.70;100.00
18167;BME280;9208;42.688;23.404;2023-02-17T05:41:43;96422.47;;;0.65;100.00
18167;BME280;9208;42.688;23.404;2023-02-17T05:44:09;96435.97;;;0.65;100.00
18167;BME280;9208;42.688;23.404;2023-02-17T05:46:34;96434.41;;;0.71;100.00
18167;BME280;9208;42.688;23.404;2023-02-17T05:48:59;96434.78;;;0.84;100.00
18167;BME280;9208;42.688;23.404;2023-02-17T05:51:28;96440.56;;;0.82;100.00
18167;BME280;9208;42.688;23.404;2023-02-17T05:53:53;96431.28;;;0.90;100.00
18167;BME280;9208;42.688;23.404;2023-02-17T05:56:18;96438.22;;;0.91;100.00
18167;BME280;9208;42.688;23.404;2023-02-17T05:58:44;96440.81;;;1.09;100.00
18167;BME280;9208;42.688;23.404;2023-02-17T06:01:10;96448.88;;;1.23;100.00
18167;BME280;9208;42.688;23.404;2023-02-17T06:03:36;96449.56;;;1.37;100.00
18167;BME280;9208;42.688;23.404;2023-02-17T06:06:02;96457.25;;;1.42;100.00
18167;BME280;9208;42.688;23.404;2023-02-17T06:08:28;96456.06;;;1.50;100.00
18167;BME280;9208;42.688;23.404;2023-02-17T06:10:54;96454.91;;;1.51;100.00
18167;BME280;9208;42.688;23.404;2023-02-17T06:13:20;96453.69;;;1.59;100.00
18167;BME280;9208;42.688;23.404;2023-02-17T06:15:45;96453.63;;;1.66;100.00
18167;BME280;9208;42.688;23.404;2023-02-17T06:18:11;96454.34;;;1.77;100.00
18167;BME280;9208;42.688;23.404;2023-02-17T06:20:37;96449.31;;;1.83;100.00
18167;BME280;9208;42.688;23.404;2023-02-17T06:23:02;96454.63;;;1.93;100.00
18167;BME280;9208;42.688;23.404;2023-02-17T06:25:27;96454.94;;;2.02;100.00
18167;BME280;9208;42.688;23.404;2023-02-17T06:27:54;96455.69;;;2.06;100.00
18167;BME280;9208;42.688;23.404;2023-02-17T06:30:20;96470.34;;;2.09;100.00
18167;BME280;9208;42.688;23.404;2023-02-17T06:32:45;96469.91;;;2.17;100.00
18167;BME280;9208;42.688;23.404;2023-02-17T06:35:11;96455.25;;;2.11;100.00
18167;BME280;9208;42.688;23.404;2023-02-17T06:37:36;96467.63;;;2.12;100.00
18167;BME280;9208;42.688;23.404;2023-02-17T06:40:02;96473.03;;;2.12;100.00
18167;BME280;9208;42.688;23.404;2023-02-17T06:42:30;96472.63;;;2.17;100.00
18167;BME280;9208;42.688;23.404;2023-02-17T06:44:55;96477.19;;;2.20;100.00
18167;BME280;9208;42.688;23.404;2023-02-17T06:47:21;96471.41;;;2.25;100.00
18167;BME280;9208;42.688;23.404;2023-02-17T06:49:46;96468.31;;;2.23;100.00
18167;BME280;9208;42.688;23.404;2023-02-17T06:52:12;96477.13;;;2.31;100.00
18167;BME280;9208;42.688;23.404;2023-02-17T06:54:37;96479.00;;;2.37;100.00
18167;BME280;9208;42.688;23.404;2023-02-17T06:57:02;96479.72;;;2.45;100.00
18167;BME280;9208;42.688;23.404;2023-02-17T06:59:28;96479.66;;;2.52;100.00
18167;BME280;9208;42.688;23.404;2023-02-17T07:01:53;96476.03;;;2.69;100.00
18167;BME280;9208;42.688;23.404;2023-02-17T07:04:19;96478.34;;;2.70;100.00
18167;BME280;9208;42.688;23.404;2023-02-17T07:06:47;96488.34;;;2.73;100.00
18167;BME280;9208;42.688;23.404;2023-02-17T07:09:12;96484.41;;;2.81;100.00
18167;BME280;9208;42.688;23.404;2023-02-17T07:11:38;96478.53;;;2.86;100.00
18167;BME280;9208;42.688;23.404;2023-02-17T07:14:04;96470.88;;;2.81;100.00
18167;BME280;9208;42.688;23.404;2023-02-17T07:16:29;96490.22;;;2.80;100.00
18167;BME280;9208;42.688;23.404;2023-02-17T07:18:54;96492.47;;;2.88;100.00
18167;BME280;9208;42.688;23.404;2023-02-17T07:21:20;96493.16;;;2.96;100.00
18167;BME280;9208;42.688;23.404;2023-02-17T07:23:45;96495.38;;;3.04;100.00
18167;BME280;9208;42.688;23.404;2023-02-17T07:26:11;96498.03;;;3.11;100.00
18167;BME280;9208;42.688;23.404;2023-02-17T07:28:37;96489.78;;;3.22;100.00
18167;BME280;9208;42.688;23.404;2023-02-17T07:31:11;96488.50;;;3.30;100.00
18167;BME280;9208;42.688;23.404;2023-02-17T07:33:38;96484.94;;;3.36;100.00
18167;BME280;9208;42.688;23.404;2023-02-17T07:36:09;96487.13;;;3.48;100.00
18167;BME280;9208;42.688;23.404;2023-02-17T07:38:35;96498.19;;;3.61;100.00
18167;BME280;9208;42.688;23.404;2023-02-17T07:41:15;96495.34;;;3.71;100.00
18167;BME280;9208;42.688;23.404;2023-02-17T07:43:41;96489.47;;;3.76;100.00
18167;BME280;9208;42.688;23.404;2023-02-17T07:46:08;96495.13;;;3.89;100.00
18167;BME280;9208;42.688;23.404;2023-02-17T07:48:33;96495.38;;;3.98;100.00
18167;BME280;9208;42.688;23.404;2023-02-17T07:51:16;96490.88;;;4.11;100.00
18167;BME280;9208;42.688;23.404;2023-02-17T07:53:43;96490.00;;;4.21;100.00
18167;BME280;9208;42.688;23.404;2023-02-17T07:56:11;96482.84;;;4.30;100.00
18167;BME280;9208;42.688;23.404;2023-02-17T07:58:38;96486.16;;;4.41;99.83
18167;BME280;9208;42.688;23.404;2023-02-17T08:01:09;96497.75;;;4.45;98.88
18167;BME280;9208;42.688;23.404;2023-02-17T08:03:35;96504.22;;;4.51;97.68
18167;BME280;9208;42.688;23.404;2023-02-17T08:06:00;96502.31;;;4.71;97.12
18167;BME280;9208;42.688;23.404;2023-02-17T08:08:26;96490.56;;;4.78;96.23
18167;BME280;9208;42.688;23.404;2023-02-17T08:11:15;96484.13;;;4.91;96.13
18167;BME280;9208;42.688;23.404;2023-02-17T08:14:00;96484.69;;;5.02;95.86
18167;BME280;9208;42.688;23.404;2023-02-17T08:16:26;96492.66;;;5.13;95.68
18167;BME280;9208;42.688;23.404;2023-02-17T08:18:55;96493.25;;;5.24;95.35
18167;BME280;9208;42.688;23.404;2023-02-17T08:21:25;96488.75;;;5.33;94.62
18167;BME280;9208;42.688;23.404;2023-02-17T08:23:52;96491.34;;;5.40;94.41
18167;BME280;9208;42.688;23.404;2023-02-17T08:26:18;96488.84;;;5.49;93.49
18167;BME280;9208;42.688;23.404;2023-02-17T08:28:44;96488.69;;;5.56;92.73
18167;BME280;9208;42.688;23.404;2023-02-17T08:31:24;96482.69;;;5.65;92.10
18167;BME280;9208;42.688;23.404;2023-02-17T08:33:50;96484.50;;;5.71;92.09
18167;BME280;9208;42.688;23.404;2023-02-17T08:36:16;96476.59;;;5.77;91.67
18167;BME280;9208;42.688;23.404;2023-02-17T08:38:42;96475.88;;;5.92;91.87
18167;BME280;9208;42.688;23.404;2023-02-17T08:41:24;96474.97;;;5.99;91.53
18167;BME280;9208;42.688;23.404;2023-02-17T08:43:51;96483.06;;;6.02;91.14
18167;BME280;9208;42.688;23.404;2023-02-17T08:46:18;96480.88;;;6.13;91.09
18167;BME280;9208;42.688;23.404;2023-02-17T08:48:44;96481.38;;;6.24;90.94
18167;BME280;9208;42.688;23.404;2023-02-17T08:51:14;96485.06;;;6.34;89.14
18167;BME280;9208;42.688;23.404;2023-02-17T08:53:40;96490.59;;;6.46;87.11
18167;BME280;9208;42.688;23.404;2023-02-17T08:56:06;96478.84;;;6.65;88.62
18167;BME280;9208;42.688;23.404;2023-02-17T08:58:32;96483.59;;;6.77;86.32
18167;BME280;9208;42.688;23.404;2023-02-17T09:00:57;96486.91;;;6.85;85.64
18167;BME280;9208;42.688;23.404;2023-02-17T09:03:23;96486.19;;;6.97;84.76
18167;BME280;9208;42.688;23.404;2023-02-17T09:05:51;96488.66;;;7.07;85.17
18167;BME280;9208;42.688;23.404;2023-02-17T09:08:17;96483.34;;;7.16;84.81
18167;BME280;9208;42.688;23.404;2023-02-17T09:10:42;96488.28;;;7.21;82.22
18167;BME280;9208;42.688;23.404;2023-02-17T09:13:08;96496.91;;;7.32;82.31
18167;BME280;9208;42.688;23.404;2023-02-17T09:15:33;96489.22;;;7.43;81.58
18167;BME280;9208;42.688;23.404;2023-02-17T09:17:59;96500.59;;;7.54;80.35
18167;BME280;9208;42.688;23.404;2023-02-17T09:20:25;96502.59;;;7.66;79.53
18167;BME280;9208;42.688;23.404;2023-02-17T09:22:51;96515.53;;;7.78;77.82
18167;BME280;9208;42.688;23.404;2023-02-17T09:25:17;96503.00;;;7.93;77.33
18167;BME280;9208;42.688;23.404;2023-02-17T09:27:43;96516.34;;;8.04;76.09
18167;BME280;9208;42.688;23.404;2023-02-17T09:30:09;96520.59;;;8.17;75.43
18167;BME280;9208;42.688;23.404;2023-02-17T09:32:34;96519.66;;;8.24;73.71
18167;BME280;9208;42.688;23.404;2023-02-17T09:34:59;96517.69;;;8.37;73.77
18167;BME280;9208;42.688;23.404;2023-02-17T09:37:27;96518.88;;;8.48;73.35
18167;BME280;9208;42.688;23.404;2023-02-17T09:39:52;96523.91;;;8.62;73.52
18167;BME280;9208;42.688;23.404;2023-02-17T09:42:24;96517.22;;;8.76;72.53
18167;BME280;9208;42.688;23.404;2023-02-17T09:44:56;96517.31;;;8.85;71.79
18167;BME280;9208;42.688;23.404;2023-02-17T09:47:28;96518.38;;;9.00;71.23
18167;BME280;9208;42.688;23.404;2023-02-17T09:50:00;96520.75;;;9.10;70.61
18167;BME280;9208;42.688;23.404;2023-02-17T09:55:08;96516.94;;;9.42;69.18
18167;BME280;9208;42.688;23.404;2023-02-17T09:57:55;96517.53;;;9.58;68.68
18167;BME280;9208;42.688;23.404;2023-02-17T10:00:29;96527.09;;;9.75;67.44
18167;BME280;9208;42.688;23.404;2023-02-17T10:03:03;96551.66;;;9.88;65.88
18167;BME280;9208;42.688;23.404;2023-02-17T10:05:38;96584.69;;;10.06;61.39
18167;BME280;9208;42.688;23.404;2023-02-17T10:08:09;96620.34;;;10.37;59.03
18167;BME280;9208;42.688;23.404;2023-02-17T10:10:51;96645.00;;;10.58;57.22
18167;BME280;9208;42.688;23.404;2023-02-17T10:13:20;96652.41;;;10.79;56.06
18167;BME280;9208;42.688;23.404;2023-02-17T10:15:51;96661.56;;;11.07;55.34
18167;BME280;9208;42.688;23.404;2023-02-17T10:18:30;96679.94;;;11.37;53.68
18167;BME280;9208;42.688;23.404;2023-02-17T10:21:04;96693.13;;;11.51;52.27
18167;BME280;9208;42.688;23.404;2023-02-17T10:23:32;96703.13;;;11.66;52.11
18167;BME280;9208;42.688;23.404;2023-02-17T10:26:25;96692.63;;;11.83;52.44
18167;BME280;9208;42.688;23.404;2023-02-17T10:29:05;96685.59;;;11.91;51.68
18167;BME280;9208;42.688;23.404;2023-02-17T10:32:14;96675.53;;;11.97;51.81
18167;BME280;9208;42.688;23.404;2023-02-17T10:35:01;96678.13;;;12.18;50.62
18167;BME280;9208;42.688;23.404;2023-02-17T10:37:49;96713.09;;;12.27;48.96
18167;BME280;9208;42.688;23.404;2023-02-17T10:40:21;96693.56;;;12.34;49.86
18167;BME280;9208;42.688;23.404;2023-02-17T10:42:50;96702.72;;;12.40;49.00
18167;BME280;9208;42.688;23.404;2023-02-17T10:45:28;96701.19;;;12.48;48.13
18167;BME280;9208;42.688;23.404;2023-02-17T10:48:01;96714.75;;;12.60;47.43
18167;BME280;9208;42.688;23.404;2023-02-17T10:50:27;96722.53;;;12.71;46.33
18167;BME280;9208;42.688;23.404;2023-02-17T10:52:53;96739.03;;;12.89;44.55
18167;BME280;9208;42.688;23.404;2023-02-17T10:58:06;96734.75;;;13.06;44.56
18167;BME280;9208;42.688;23.404;2023-02-17T11:00:35;96740.09;;;13.00;45.26
18167;BME280;9208;42.688;23.404;2023-02-17T11:03:01;96769.31;;;12.98;41.73
18167;BME280;9208;42.688;23.404;2023-02-17T11:05:33;96770.69;;;12.93;41.73
18167;BME280;9208;42.688;23.404;2023-02-17T11:08:07;96763.50;;;13.05;41.99
18167;BME280;9208;42.688;23.404;2023-02-17T11:10:58;96750.19;;;13.12;42.72
18167;BME280;9208;42.688;23.404;2023-02-17T11:13:41;96747.13;;;13.19;42.56
18167;BME280;9208;42.688;23.404;2023-02-17T11:16:41;96761.28;;;13.36;40.89
18167;BME280;9208;42.688;23.404;2023-02-17T11:19:17;96768.47;;;13.42;40.15
18167;BME280;9208;42.688;23.404;2023-02-17T11:21:44;96748.41;;;13.42;42.08
18167;BME280;9208;42.688;23.404;2023-02-17T11:24:10;96764.47;;;13.43;41.21
18167;BME280;9208;42.688;23.404;2023-02-17T11:26:36;96753.91;;;13.42;41.68
18167;BME280;9208;42.688;23.404;2023-02-17T11:29:08;96731.69;;;13.45;42.35
18167;BME280;9208;42.688;23.404;2023-02-17T11:31:33;96738.28;;;13.48;40.97
18167;BME280;9208;42.688;23.404;2023-02-17T11:34:10;96743.91;;;13.53;40.87
18167;BME280;9208;42.688;23.404;2023-02-17T11:36:35;96745.72;;;13.65;40.66
18167;BME280;9208;42.688;23.404;2023-02-17T11:39:16;96744.28;;;13.70;40.01
18167;BME280;9208;42.688;23.404;2023-02-17T11:41:42;96754.53;;;13.78;40.65
18167;BME280;9208;42.688;23.404;2023-02-17T11:44:09;96738.88;;;13.84;40.33
18167;BME280;9208;42.688;23.404;2023-02-17T11:47:13;96741.34;;;13.82;40.12
18167;BME280;9208;42.688;23.404;2023-02-17T11:52:22;96715.53;;;13.94;41.24
18167;BME280;9208;42.688;23.404;2023-02-17T11:57:41;96704.28;;;13.83;40.63
18167;BME280;9208;42.688;23.404;2023-02-17T12:02:55;96694.88;;;13.90;41.02
18167;BME280;9208;42.688;23.404;2023-02-17T12:08:44;96682.84;;;14.02;41.58
18167;BME280;9208;42.688;23.404;2023-02-17T12:22:15;96685.16;;;14.27;39.89
18167;BME280;9208;42.688;23.404;2023-02-17T12:30:46;96672.47;;;14.20;40.46
18167;BME280;9208;42.688;23.404;2023-02-17T12:33:33;96665.47;;;14.34;39.96
18167;BME280;9208;42.688;23.404;2023-02-17T12:36:10;96673.19;;;14.30;39.29
18167;BME280;9208;42.688;23.404;2023-02-17T12:38:42;96662.22;;;14.35;39.42
18167;BME280;9208;42.688;23.404;2023-02-17T12:43:52;96644.38;;;14.45;39.88
18167;BME280;9208;42.688;23.404;2023-02-17T12:46:46;96649.81;;;14.54;39.44
18167;BME280;9208;42.688;23.404;2023-02-17T12:51:48;96656.97;;;14.61;38.67
18167;BME280;9208;42.688;23.404;2023-02-17T12:54:35;96664.19;;;14.58;37.90
18167;BME280;9208;42.688;23.404;2023-02-17T12:57:21;96664.34;;;14.55;37.49
18167;BME280;9208;42.688;23.404;2023-02-17T13:00:17;96660.16;;;14.45;38.20
18167;BME280;9208;42.688;23.404;2023-02-17T13:02:45;96649.47;;;14.38;38.18
18167;BME280;9208;42.688;23.404;2023-02-17T13:05:19;96645.44;;;14.48;38.38
18167;BME280;9208;42.688;23.404;2023-02-17T13:07:52;96639.25;;;14.53;38.66
18167;BME280;9208;42.688;23.404;2023-02-17T13:10:32;96641.59;;;14.60;38.22
18167;BME280;9208;42.688;23.404;2023-02-17T13:15:41;96646.47;;;14.50;37.83
18167;BME280;9208;42.688;23.404;2023-02-17T13:18:28;96638.19;;;14.65;37.81
18167;BME280;9208;42.688;23.404;2023-02-17T13:23:44;96637.91;;;14.63;37.79
18167;BME280;9208;42.688;23.404;2023-02-17T13:26:14;96639.34;;;14.73;37.83
18167;BME280;9208;42.688;23.404;2023-02-17T13:28:42;96632.19;;;14.66;37.55
18167;BME280;9208;42.688;23.404;2023-02-17T13:31:20;96628.69;;;14.66;37.82
18167;BME280;9208;42.688;23.404;2023-02-17T13:33:55;96628.00;;;14.56;37.33
18167;BME280;9208;42.688;23.404;2023-02-17T13:36:35;96630.28;;;14.58;37.39
18167;BME280;9208;42.688;23.404;2023-02-17T13:41:48;96631.53;;;14.57;37.11
18167;BME280;9208;42.688;23.404;2023-02-17T13:44:31;96630.28;;;14.58;36.91
18167;BME280;9208;42.688;23.404;2023-02-17T13:47:00;96625.25;;;14.56;37.06
18167;BME280;9208;42.688;23.404;2023-02-17T13:49:29;96631.25;;;14.55;37.05
18167;BME280;9208;42.688;23.404;2023-02-17T13:52:21;96621.53;;;14.59;37.20
18167;BME280;9208;42.688;23.404;2023-02-17T13:54:58;96630.28;;;14.58;36.78
18167;BME280;9208;42.688;23.404;2023-02-17T13:57:34;96655.03;;;14.52;34.79
18167;BME280;9208;42.688;23.404;2023-02-17T14:02:31;96664.16;;;14.44;34.98
18167;BME280;9208;42.688;23.404;2023-02-17T14:04:58;96652.06;;;14.41;35.18
18167;BME280;9208;42.688;23.404;2023-02-17T14:07:24;96647.59;;;14.44;35.44
18167;BME280;9208;42.688;23.404;2023-02-17T14:09:54;96637.31;;;14.44;36.15
18167;BME280;9208;42.688;23.404;2023-02-17T14:12:21;96617.44;;;14.40;36.86
18167;BME280;9208;42.688;23.404;2023-02-17T14:14:48;96603.81;;;14.37;37.55
18167;BME280;9208;42.688;23.404;2023-02-17T14:17:29;96606.59;;;14.37;37.61
18167;BME280;9208;42.688;23.404;2023-02-17T14:19:57;96604.97;;;14.30;37.29
18167;BME280;9208;42.688;23.404;2023-02-17T14:22:33;96596.59;;;14.25;37.73
18167;BME280;9208;42.688;23.404;2023-02-17T14:25:03;96598.13;;;14.26;37.75
18167;BME280;9208;42.688;23.404;2023-02-17T14:27:42;96595.84;;;14.24;37.85
18167;BME280;9208;42.688;23.404;2023-02-17T14:30:27;96599.22;;;14.19;38.19
18167;BME280;9208;42.688;23.404;2023-02-17T14:35:59;96581.91;;;14.19;38.48